Rush Center, Kansas
Current Conditions -  °F | °C
As of 1:15 AM on Friday 19 Dec 2014 (Local Time) from KGBD Reporting Station
Overcast Overcast  
Wind Chill: 25°   Ceiling: 1300
Heat Index: 30°   Visibility: 5mi
Dew Point: 25°   Wind: 5mph
Humidity: 80%   Direction: 160°SSE
Pressure: 30.22"   Gusts: NA
Location:  38.47°N, 99.31°W
Report Text: KGBD 190715Z AUTO 16004KT 5SM OVC013 M01/M04 A3022 RMK AO1
Loading
Personal Weather Stations






























Interactive Weather Map New forecast layout! Learn more

10-Day Weather Forecast

Advertisements
Track Severe Weather on mobile